createdAt,value
2022-11-05T00:00:05.615Z,5.72
2022-11-05T00:02:50.906Z,3.90
2022-11-05T00:05:36.332Z,4.57
2022-11-05T00:08:23.874Z,5.50
2022-11-05T00:10:50.737Z,5.18
2022-11-05T00:13:38.455Z,4.13
2022-11-05T00:16:40.383Z,4.80
2022-11-05T00:19:07.247Z,5.00
2022-11-05T00:21:53.799Z,6.05
2022-11-05T00:24:39.580Z,7.00
2022-11-05T00:27:06.137Z,6.28
2022-11-05T00:29:32.618Z,5.10
2022-11-05T00:31:59.312Z,6.97
2022-11-05T00:34:25.955Z,5.63
2022-11-05T00:36:52.517Z,8.20
2022-11-05T00:39:19.075Z,8.98
2022-11-05T00:42:05.649Z,6.30
2022-11-05T00:44:50.489Z,8.57
2022-11-05T00:47:35.495Z,5.82
2022-11-05T00:50:02.052Z,4.05
2022-11-05T00:52:47.016Z,9.43
2022-11-05T00:55:16.266Z,8.05
2022-11-05T00:57:42.744Z,8.45
2022-11-05T01:00:11.223Z,7.47
2022-11-05T01:02:37.994Z,6.50
2022-11-05T01:05:04.913Z,6.32
2022-11-05T01:07:33.818Z,5.65
2022-11-05T01:10:00.395Z,6.20
2022-11-05T01:12:26.960Z,8.25
2022-11-05T01:14:53.539Z,8.85
2022-11-05T01:17:20.078Z,5.80
2022-11-05T01:19:46.608Z,7.97
2022-11-05T01:22:13.394Z,6.93
2022-11-05T01:24:41.122Z,7.38
2022-11-05T01:27:07.655Z,6.43
2022-11-05T01:29:36.437Z,6.68
2022-11-05T01:32:03.054Z,7.53
2022-11-05T01:34:32.061Z,8.23
2022-11-05T01:36:58.595Z,9.55
2022-11-05T01:39:25.157Z,7.60
2022-11-05T01:41:51.687Z,7.32
2022-11-05T01:44:52.254Z,10.18
2022-11-05T01:47:43.218Z,9.65
2022-11-05T01:50:34.709Z,11.02
2022-11-05T01:53:14.160Z,10.07
2022-11-05T01:55:45.939Z,11.65
2022-11-05T01:58:18.645Z,7.07
2022-11-05T02:00:45.489Z,10.50
2022-11-05T02:03:16.324Z,8.23
2022-11-05T02:05:43.573Z,8.70
2022-11-05T02:08:19.632Z,13.13
2022-11-05T02:10:49.067Z,9.88
2022-11-05T02:13:15.618Z,12.85
2022-11-05T02:15:55.813Z,12.60
2022-11-05T02:18:45.596Z,10.70
2022-11-05T02:21:45.613Z,9.27
2022-11-05T02:24:23.639Z,6.38
2022-11-05T02:26:54.683Z,10.30
2022-11-05T02:29:33.112Z,10.63
2022-11-05T02:32:04.961Z,8.68
2022-11-05T02:34:55.825Z,9.35
2022-11-05T02:37:28.588Z,11.70
2022-11-05T02:40:10.963Z,10.35
2022-11-05T02:43:09.408Z,5.72
2022-11-05T02:46:03.167Z,6.88
2022-11-05T02:48:41.508Z,7.47
2022-11-05T02:51:16.581Z,11.02
2022-11-05T02:53:46.157Z,6.10
2022-11-05T02:56:26.927Z,6.38
2022-11-05T02:58:55.747Z,7.47
2022-11-05T03:01:22.401Z,8.55
2022-11-05T03:03:53.153Z,7.53
2022-11-05T03:06:52.020Z,8.55
2022-11-05T03:09:49.369Z,7.30
2022-11-05T03:12:24.985Z,9.60
2022-11-05T03:15:07.223Z,10.27
2022-11-05T03:17:45.067Z,8.32
2022-11-05T03:20:23.435Z,8.98
2022-11-05T03:23:20.883Z,6.97
2022-11-05T03:25:53.591Z,9.07
2022-11-05T03:28:28.035Z,7.10
2022-11-05T03:30:59.343Z,6.95
2022-11-05T03:33:29.669Z,12.57
2022-11-05T03:36:01.632Z,5.30
2022-11-05T03:38:35.080Z,9.85
2022-11-05T03:41:07.483Z,8.65
2022-11-05T03:43:40.630Z,10.05
2022-11-05T03:46:16.003Z,13.18
2022-11-05T03:48:47.352Z,9.65
2022-11-05T03:51:27.472Z,9.75
2022-11-05T03:53:57.797Z,9.75
2022-11-05T03:56:36.951Z,9.30
2022-11-05T03:59:05.961Z,9.40
2022-11-05T04:01:32.952Z,8.30
2022-11-05T04:04:01.832Z,8.00
2022-11-05T04:06:49.543Z,9.85
2022-11-05T04:09:34.819Z,13.80
2022-11-05T04:12:19.963Z,8.63
2022-11-05T04:14:46.543Z,10.98
2022-11-05T04:17:13.038Z,13.00
2022-11-05T04:20:02.304Z,8.80
2022-11-05T04:22:49.785Z,9.73
2022-11-05T04:25:17.877Z,13.70
2022-11-05T04:27:44.964Z,12.40
2022-11-05T04:30:19.361Z,9.68
2022-11-05T04:33:16.471Z,17.05
2022-11-05T04:35:46.118Z,11.65
2022-11-05T04:38:15.311Z,11.38
2022-11-05T04:40:45.892Z,11.32
2022-11-05T04:43:17.939Z,13.27
2022-11-05T04:45:45.348Z,11.57
2022-11-05T04:48:12.439Z,10.55
2022-11-05T04:50:39.293Z,12.90
2022-11-05T04:53:05.859Z,10.60
2022-11-05T04:55:32.436Z,13.98
2022-11-05T04:58:01.257Z,14.98
2022-11-05T05:00:27.777Z,12.38
2022-11-05T05:02:59.242Z,11.90
2022-11-05T05:05:30.518Z,13.95
2022-11-05T05:08:05.012Z,12.80
2022-11-05T05:10:32.529Z,13.32
2022-11-05T05:12:59.001Z,13.48
2022-11-05T05:15:25.512Z,16.70
2022-11-05T05:17:52.893Z,11.73
2022-11-05T05:20:38.656Z,15.32
2022-11-05T05:23:07.424Z,17.33
2022-11-05T05:25:34.057Z,13.90
2022-11-05T05:28:00.592Z,10.70
2022-11-05T05:30:27.121Z,15.93
2022-11-05T05:32:53.658Z,13.00
2022-11-05T05:35:22.692Z,15.98
2022-11-05T05:37:49.300Z,16.38
2022-11-05T05:40:18.135Z,13.35
2022-11-05T05:42:47.022Z,14.15
2022-11-05T05:45:13.654Z,12.27
2022-11-05T05:47:43.244Z,13.18
2022-11-05T05:50:09.861Z,15.80
2022-11-05T05:52:36.425Z,14.25
2022-11-05T05:55:02.922Z,15.18
2022-11-05T05:57:29.418Z,15.95
2022-11-05T05:59:56.060Z,13.82
2022-11-05T06:02:22.973Z,17.42
2022-11-05T06:04:49.719Z,15.27
2022-11-05T06:07:16.279Z,19.00
2022-11-05T06:09:42.799Z,20.63
2022-11-05T06:12:09.341Z,12.48
2022-11-05T06:14:35.864Z,15.57
2022-11-05T06:17:02.357Z,17.25
2022-11-05T06:19:29.245Z,16.35
2022-11-05T06:21:55.798Z,15.48
2022-11-05T06:24:22.375Z,15.85
2022-11-05T06:26:48.848Z,20.27
2022-11-05T06:29:15.353Z,15.82
2022-11-05T06:31:41.882Z,16.20
2022-11-05T06:34:08.454Z,16.38
2022-11-05T06:36:34.980Z,14.65
2022-11-05T06:39:01.805Z,14.80
2022-11-05T06:41:30.849Z,16.20
2022-11-05T06:43:57.382Z,16.75
2022-11-05T06:46:24.002Z,15.07
2022-11-05T06:48:51.075Z,14.48
2022-11-05T06:51:19.862Z,16.85
2022-11-05T06:53:46.576Z,13.60
2022-11-05T06:56:13.371Z,16.42
2022-11-05T06:58:42.268Z,16.20
2022-11-05T07:01:10.010Z,18.55
2022-11-05T07:03:37.916Z,19.42
2022-11-05T07:06:06.149Z,16.60
2022-11-05T07:08:34.522Z,15.05
2022-11-05T07:11:01.356Z,16.08
2022-11-05T07:13:28.116Z,13.30
2022-11-05T07:15:57.476Z,12.75
2022-11-05T07:18:24.081Z,13.15
2022-11-05T07:20:50.606Z,16.73
2022-11-05T07:23:17.574Z,17.75
2022-11-05T07:25:44.910Z,15.70
2022-11-05T07:28:12.175Z,17.25
2022-11-05T07:30:39.068Z,14.07
2022-11-05T07:33:05.633Z,15.18
2022-11-05T07:35:32.224Z,13.68
2022-11-05T07:37:59.387Z,14.80
2022-11-05T07:40:27.782Z,18.75
2022-11-05T07:42:56.554Z,14.60
2022-11-05T07:45:23.439Z,12.05
2022-11-05T07:47:57.938Z,12.02
2022-11-05T07:50:27.304Z,13.65
2022-11-05T07:52:54.298Z,14.38
2022-11-05T07:55:21.093Z,12.82
2022-11-05T07:57:51.124Z,14.35
2022-11-05T08:00:24.440Z,13.27
2022-11-05T08:03:09.235Z,13.65
2022-11-05T08:05:43.481Z,14.65
2022-11-05T08:08:16.340Z,10.85
2022-11-05T08:10:43.292Z,12.63
2022-11-05T08:13:10.527Z,14.13
2022-11-05T08:15:37.407Z,15.35
2022-11-05T08:18:06.768Z,14.02
2022-11-05T08:20:36.303Z,12.10
2022-11-05T08:23:03.143Z,14.68
2022-11-05T08:25:31.624Z,15.13
2022-11-05T08:28:00.236Z,19.17
2022-11-05T08:30:27.814Z,16.10
2022-11-05T08:32:59.968Z,13.75
2022-11-05T08:35:28.283Z,16.00
2022-11-05T08:38:02.986Z,12.55
2022-11-05T08:40:31.957Z,13.00
2022-11-05T08:43:00.224Z,14.95
2022-11-05T08:45:27.454Z,15.95
2022-11-05T08:48:09.543Z,16.83
2022-11-05T08:50:38.321Z,15.50
2022-11-05T08:53:06.216Z,12.48
2022-11-05T08:55:38.425Z,17.58
2022-11-05T08:58:10.603Z,14.80
2022-11-05T09:00:37.966Z,14.85
2022-11-05T09:03:07.171Z,17.10
2022-11-05T09:05:39.289Z,15.48
2022-11-05T09:08:07.925Z,14.57
2022-11-05T09:10:34.625Z,13.30
2022-11-05T09:13:01.414Z,16.90
2022-11-05T09:15:29.714Z,11.35
2022-11-05T09:17:56.580Z,12.90
2022-11-05T09:20:23.752Z,13.85
2022-11-05T09:22:50.701Z,14.27
2022-11-05T09:25:17.329Z,14.00
2022-11-05T09:27:44.076Z,13.63
2022-11-05T09:30:12.206Z,12.70
2022-11-05T09:32:39.000Z,14.20
2022-11-05T09:35:06.809Z,9.82
2022-11-05T09:37:33.494Z,11.85
2022-11-05T09:40:00.091Z,12.23
2022-11-05T09:42:42.465Z,14.30
2022-11-05T09:45:16.910Z,10.85
2022-11-05T09:47:53.898Z,13.85
2022-11-05T09:50:30.571Z,14.03
2022-11-05T09:52:57.909Z,13.57
2022-11-05T09:55:29.620Z,12.65
2022-11-05T09:58:02.270Z,12.70
2022-11-05T10:00:31.469Z,8.32
2022-11-05T10:03:04.653Z,12.90
2022-11-05T10:05:33.591Z,14.75
2022-11-05T10:08:04.578Z,13.73
2022-11-05T10:10:41.187Z,9.95
2022-11-05T10:13:35.936Z,12.77
2022-11-05T10:16:06.840Z,9.93
2022-11-05T10:18:36.395Z,7.63
2022-11-05T10:21:05.674Z,11.73
2022-11-05T10:23:32.913Z,9.55
2022-11-05T10:26:05.292Z,16.48
2022-11-05T10:28:33.573Z,11.95
2022-11-05T10:31:03.523Z,12.20
2022-11-05T10:33:32.941Z,13.85
2022-11-05T10:36:09.635Z,8.70
2022-11-05T10:38:36.425Z,8.43
2022-11-05T10:41:14.937Z,8.38
2022-11-05T10:43:55.196Z,8.18
2022-11-05T10:46:38.238Z,8.25
2022-11-05T10:49:22.826Z,10.43
2022-11-05T10:51:57.359Z,11.68
2022-11-05T10:54:30.211Z,9.73
2022-11-05T10:56:56.875Z,12.52
2022-11-05T10:59:29.062Z,12.90
2022-11-05T11:02:08.320Z,11.27
2022-11-05T11:04:37.851Z,9.88
2022-11-05T11:07:05.207Z,8.95
2022-11-05T11:09:36.114Z,9.95
2022-11-05T11:12:15.843Z,10.02
2022-11-05T11:14:42.395Z,10.50
2022-11-05T11:17:27.651Z,8.00
2022-11-05T11:20:22.476Z,12.80
2022-11-05T11:23:04.296Z,9.98
2022-11-05T11:25:56.190Z,16.08
2022-11-05T11:28:27.057Z,8.32
2022-11-05T11:31:03.547Z,10.90
2022-11-05T11:33:31.776Z,12.95
2022-11-05T11:36:01.388Z,9.63
2022-11-05T11:38:34.441Z,11.15
2022-11-05T11:41:09.273Z,9.23
2022-11-05T11:43:40.839Z,9.20
2022-11-05T11:46:16.511Z,9.55
2022-11-05T11:48:47.461Z,10.50
2022-11-05T11:51:40.662Z,11.00
2022-11-05T11:54:28.869Z,8.70
2022-11-05T11:56:58.036Z,10.25
2022-11-05T11:59:54.037Z,7.97
2022-11-05T12:02:38.787Z,9.10
2022-11-05T12:05:27.785Z,9.30
2022-11-05T12:07:58.159Z,7.13
2022-11-05T12:10:49.934Z,10.32
2022-11-05T12:13:19.473Z,9.40
2022-11-05T12:15:55.213Z,6.45
2022-11-05T12:18:47.724Z,7.72
2022-11-05T12:21:51.323Z,8.50
2022-11-05T12:24:48.891Z,8.13
2022-11-05T12:27:26.098Z,8.88
2022-11-05T12:30:03.408Z,7.88
2022-11-05T12:32:38.584Z,8.98
2022-11-05T12:35:12.219Z,10.25
2022-11-05T12:37:46.383Z,11.73
2022-11-05T12:40:34.803Z,9.05
2022-11-05T12:43:11.724Z,6.13
2022-11-05T12:46:01.534Z,8.63
2022-11-05T12:49:01.148Z,6.70
2022-11-05T12:52:03.218Z,7.05
2022-11-05T12:54:32.817Z,6.25
2022-11-05T12:57:03.525Z,10.27
2022-11-05T12:59:56.057Z,26.75
2022-11-05T13:02:48.073Z,27.90
2022-11-05T13:05:36.541Z,17.92
2022-11-05T13:08:10.512Z,15.98
2022-11-05T13:10:44.674Z,16.08
2022-11-05T13:13:21.066Z,19.92
2022-11-05T13:16:05.266Z,19.40
2022-11-05T13:18:47.346Z,15.43
2022-11-05T13:21:19.785Z,12.32
2022-11-05T13:24:01.563Z,13.98
2022-11-05T13:26:37.588Z,14.65
2022-11-05T13:29:04.105Z,16.90
2022-11-05T13:31:36.480Z,15.38
2022-11-05T13:34:11.145Z,12.25
2022-11-05T13:37:19.073Z,11.93
2022-11-05T13:39:47.622Z,13.48
2022-11-05T13:42:51.858Z,8.15
2022-11-05T13:45:44.948Z,10.55
2022-11-05T13:48:49.390Z,8.05
2022-11-05T13:51:41.025Z,8.88
2022-11-05T13:54:30.936Z,9.18
2022-11-05T13:57:06.279Z,6.72
2022-11-05T13:59:51.805Z,9.52
2022-11-05T14:02:26.632Z,7.35
2022-11-05T14:05:01.967Z,7.95
2022-11-05T14:07:43.181Z,8.07
2022-11-05T14:10:28.408Z,7.05
2022-11-05T14:12:57.387Z,7.60
2022-11-05T14:15:28.932Z,7.95
2022-11-05T14:18:05.527Z,10.07
2022-11-05T14:20:32.052Z,8.90
2022-11-05T14:23:25.206Z,7.43
2022-11-05T14:25:54.626Z,8.35
2022-11-05T14:28:38.751Z,9.82
2022-11-05T14:31:31.411Z,7.45
2022-11-05T14:34:13.151Z,6.75
2022-11-05T14:36:44.518Z,5.63
2022-11-05T14:39:28.201Z,7.18
2022-11-05T14:41:57.737Z,8.35
2022-11-05T14:44:25.880Z,8.32
2022-11-05T14:46:56.273Z,6.90
2022-11-05T14:49:27.154Z,5.65
2022-11-05T14:51:56.705Z,7.00
2022-11-05T14:54:29.604Z,11.90
2022-11-05T14:56:59.903Z,6.03
2022-11-05T14:59:31.565Z,6.85
2022-11-05T15:02:03.861Z,11.43
2022-11-05T15:04:36.260Z,5.88
2022-11-05T15:07:02.864Z,6.70
2022-11-05T15:09:40.401Z,7.95
2022-11-05T15:12:30.180Z,7.93
2022-11-05T15:15:02.216Z,9.15
2022-11-05T15:18:08.196Z,7.88
2022-11-05T15:20:40.753Z,8.50
2022-11-05T15:23:16.918Z,7.40
2022-11-05T15:26:05.013Z,9.75
2022-11-05T15:28:37.246Z,7.28
2022-11-05T15:31:12.980Z,7.18
2022-11-05T15:33:45.098Z,7.35
2022-11-05T15:36:29.346Z,7.30
2022-11-05T15:39:27.795Z,7.60
2022-11-05T15:41:46.881Z,5.80
2022-11-05T15:44:32.996Z,10.35
2022-11-05T15:47:08.969Z,11.23
2022-11-05T15:49:35.719Z,6.03
2022-11-05T15:52:02.280Z,7.68
2022-11-05T15:54:30.535Z,9.38
2022-11-05T15:56:59.600Z,8.55
2022-11-05T15:59:29.283Z,7.75
2022-11-05T16:02:26.996Z,8.05
2022-11-05T16:04:53.655Z,7.28
2022-11-05T16:07:21.004Z,6.50
2022-11-05T16:09:59.516Z,6.57
2022-11-05T16:12:35.031Z,6.07
2022-11-05T16:15:19.902Z,8.27
2022-11-05T16:17:51.611Z,7.55
2022-11-05T16:20:25.721Z,7.78
2022-11-05T16:22:55.738Z,6.88
2022-11-05T16:25:22.432Z,10.32
2022-11-05T16:27:49.094Z,6.78
2022-11-05T16:30:17.759Z,8.98
2022-11-05T16:32:44.646Z,8.30
2022-11-05T16:35:23.075Z,6.82
2022-11-05T16:38:03.146Z,7.75
2022-11-05T16:40:29.713Z,6.38
2022-11-05T16:43:36.820Z,9.85
2022-11-05T16:46:03.396Z,7.47
2022-11-05T16:48:29.962Z,8.00
2022-11-05T16:50:56.505Z,8.32
2022-11-05T16:53:23.483Z,8.88
2022-11-05T16:55:50.150Z,8.18
2022-11-05T16:58:21.973Z,8.68
2022-11-05T17:00:50.891Z,10.45
2022-11-05T17:03:17.797Z,10.80
2022-11-05T17:05:44.535Z,11.25
2022-11-05T17:08:16.163Z,9.30
2022-11-05T17:10:42.773Z,8.68
2022-11-05T17:13:14.797Z,9.38
2022-11-05T17:15:43.776Z,8.80
2022-11-05T17:18:16.920Z,7.75
2022-11-05T17:20:48.189Z,9.25
2022-11-05T17:23:17.731Z,10.82
2022-11-05T17:25:47.089Z,6.95
2022-11-05T17:28:14.468Z,7.20
2022-11-05T17:30:42.042Z,8.38
2022-11-05T17:33:11.257Z,6.13
2022-11-05T17:35:39.753Z,8.82
2022-11-05T17:38:06.354Z,7.78
2022-11-05T17:40:37.120Z,10.15
2022-11-05T17:43:04.164Z,7.30
2022-11-05T17:45:33.598Z,7.93
2022-11-05T17:48:03.213Z,8.15
2022-11-05T17:50:32.220Z,7.55
2022-11-05T17:52:58.749Z,9.95
2022-11-05T17:55:25.822Z,9.50
2022-11-05T17:57:56.216Z,7.28
2022-11-05T18:00:24.176Z,7.00
2022-11-05T18:02:53.067Z,7.30
2022-11-05T18:05:21.738Z,8.80
2022-11-05T18:07:51.617Z,9.23
2022-11-05T18:10:18.244Z,10.55
2022-11-05T18:12:49.601Z,10.93
2022-11-05T18:15:17.400Z,12.57
2022-11-05T18:17:45.574Z,11.65
2022-11-05T18:20:18.924Z,7.65
2022-11-05T18:22:49.298Z,8.65
2022-11-05T18:25:16.544Z,7.35
2022-11-05T18:27:43.102Z,9.15
2022-11-05T18:30:11.059Z,7.72
2022-11-05T18:32:38.819Z,11.05
2022-11-05T18:35:05.691Z,7.47
2022-11-05T18:37:34.485Z,8.65
2022-11-05T18:40:01.045Z,8.85
2022-11-05T18:42:27.667Z,9.32
2022-11-05T18:44:54.256Z,12.55
2022-11-05T18:47:20.931Z,9.23
2022-11-05T18:49:49.733Z,8.57
2022-11-05T18:52:16.426Z,10.35
2022-11-05T18:54:43.032Z,7.35
2022-11-05T18:57:09.585Z,8.85
2022-11-05T18:59:39.914Z,6.35
2022-11-05T19:02:08.249Z,10.15
2022-11-05T19:04:38.280Z,6.90
2022-11-05T19:07:11.566Z,9.13
2022-11-05T19:09:40.318Z,9.07
2022-11-05T19:12:09.487Z,8.55
2022-11-05T19:14:36.389Z,11.48
2022-11-05T19:17:04.284Z,10.77
2022-11-05T19:19:31.084Z,9.48
2022-11-05T19:21:57.676Z,10.23
2022-11-05T19:24:24.272Z,11.02
2022-11-05T19:26:50.937Z,11.50
2022-11-05T19:29:17.535Z,19.35
2022-11-05T19:31:44.386Z,12.52
2022-11-05T19:34:15.780Z,9.73
2022-11-05T19:36:42.882Z,8.15
2022-11-05T19:39:13.527Z,10.40
2022-11-05T19:41:40.566Z,14.70
2022-11-05T19:44:09.487Z,9.95
2022-11-05T19:46:36.036Z,10.52
2022-11-05T19:49:02.821Z,12.68
2022-11-05T19:51:31.522Z,8.63
2022-11-05T19:53:59.935Z,10.70
2022-11-05T19:56:29.858Z,9.93
2022-11-05T19:58:57.502Z,13.70
2022-11-05T20:01:25.951Z,8.15
2022-11-05T20:03:54.962Z,9.50
2022-11-05T20:06:34.690Z,8.13
2022-11-05T20:09:25.529Z,11.90
2022-11-05T20:11:56.476Z,9.95
2022-11-05T20:14:24.923Z,8.65
2022-11-05T20:16:53.544Z,10.50
2022-11-05T20:19:21.832Z,8.50
2022-11-05T20:21:49.022Z,9.98
2022-11-05T20:24:24.311Z,7.43
2022-11-05T20:26:53.855Z,7.78
2022-11-05T20:29:20.424Z,12.57
2022-11-05T20:31:50.066Z,15.13
2022-11-05T20:34:16.726Z,10.93
2022-11-05T20:36:43.335Z,8.90
2022-11-05T20:39:10.364Z,9.93
2022-11-05T20:41:36.869Z,11.30
2022-11-05T20:44:04.700Z,11.43
2022-11-05T20:46:32.824Z,15.43
2022-11-05T20:49:01.966Z,10.63
2022-11-05T20:51:28.557Z,12.93
2022-11-05T20:53:56.890Z,13.45
2022-11-05T20:56:29.471Z,12.95
2022-11-05T20:59:00.409Z,15.60
2022-11-05T21:01:32.956Z,13.07
2022-11-05T21:04:00.091Z,11.68
2022-11-05T21:06:26.796Z,11.90
2022-11-05T21:08:53.977Z,11.60
2022-11-05T21:11:20.737Z,12.48
2022-11-05T21:13:47.661Z,8.68
2022-11-05T21:16:18.489Z,14.15
2022-11-05T21:18:46.053Z,11.68
2022-11-05T21:21:17.856Z,11.95
2022-11-05T21:23:44.695Z,9.45
2022-11-05T21:26:13.942Z,10.43
2022-11-05T21:28:41.686Z,10.30
2022-11-05T21:31:09.354Z,11.68
2022-11-05T21:33:38.711Z,12.80
2022-11-05T21:36:10.501Z,13.27
2022-11-05T21:38:37.284Z,10.27
2022-11-05T21:41:04.815Z,15.55
2022-11-05T21:43:31.730Z,12.05
2022-11-05T21:46:01.856Z,11.65
2022-11-05T21:48:34.308Z,10.88
2022-11-05T21:51:19.425Z,9.70
2022-11-05T21:54:04.835Z,9.65
2022-11-05T21:56:50.385Z,12.52
2022-11-05T21:59:38.574Z,12.60
2022-11-05T22:02:05.525Z,17.27
2022-11-05T22:04:34.510Z,16.60
2022-11-05T22:07:01.259Z,16.02
2022-11-05T22:09:28.112Z,14.70
2022-11-05T22:11:55.247Z,10.85
2022-11-05T22:14:22.108Z,13.70
2022-11-05T22:16:48.844Z,15.57
2022-11-05T22:19:15.614Z,11.25
2022-11-05T22:21:42.340Z,12.18
2022-11-05T22:24:09.395Z,10.57
2022-11-05T22:26:36.978Z,10.50
2022-11-05T22:29:04.538Z,12.50
2022-11-05T22:31:35.954Z,13.85
2022-11-05T22:34:04.359Z,11.88
2022-11-05T22:36:30.945Z,12.73
2022-11-05T22:38:57.437Z,11.27
2022-11-05T22:41:24.083Z,10.20
2022-11-05T22:43:50.886Z,12.30
2022-11-05T22:46:21.802Z,11.63
2022-11-05T22:48:48.980Z,10.20
2022-11-05T22:51:20.290Z,12.30
2022-11-05T22:53:47.482Z,13.55
2022-11-05T22:56:18.829Z,14.50
2022-11-05T22:58:45.543Z,12.55
2022-11-05T23:01:13.455Z,11.95
2022-11-05T23:03:41.808Z,11.55
2022-11-05T23:06:34.081Z,12.82
2022-11-05T23:09:20.557Z,13.07
2022-11-05T23:11:50.296Z,13.98
2022-11-05T23:14:17.132Z,12.63
2022-11-05T23:17:02.807Z,14.32
2022-11-05T23:19:48.296Z,12.77
2022-11-05T23:22:36.955Z,8.52
2022-11-05T23:25:05.302Z,8.65
2022-11-05T23:27:38.496Z,9.98
2022-11-05T23:30:11.983Z,9.48
2022-11-05T23:32:38.831Z,12.32
2022-11-05T23:35:06.328Z,10.20
2022-11-05T23:37:51.544Z,9.60
2022-11-05T23:40:24.223Z,11.93
2022-11-05T23:43:23.045Z,9.68
2022-11-05T23:45:49.536Z,10.27
2022-11-05T23:48:37.102Z,16.20
2022-11-05T23:51:08.018Z,13.48
2022-11-05T23:53:37.379Z,13.45
2022-11-05T23:56:12.780Z,10.82
2022-11-05T23:58:42.802Z,12.23
